Glenburnie, Maryland
Current Conditions -  °F | °C
As of 11:54 PM on Tuesday 21 Oct 2014 (Local Time) from KBWI Reporting Station
Light Rain Light Rain  
Wind Chill: 53°   Ceiling: 6000
Heat Index: 53°   Visibility: 5mi
Dew Point: 51°   Wind: 6mph
Humidity: 93%   Direction: 310°NW
Pressure: 29.89"   Gusts: NA
Location:  39.1648°N, 76.6418°W
Report Text: KBWI 220354Z 31005KT 5SM -RA BR FEW042 OVC060 12/11 A2989 RMK AO2 SLP121 P0007 T01170106
Loading
Personal Weather Stations






























Interactive Weather Map New forecast layout! Learn more

10-Day Weather Forecast

Advertisements
Track Severe Weather on mobile